Time;durP1;ratioP1;P1;durP2;ratioP2;P2;SDS_P1;SDS_P2;PMS_P1;PMS_P2;Temp;Humidity;BMP_temperature;BMP_pressure;BME280_temperature;BME280_humidity;BME280_pressure;Samples;Min_cycle;Max_cycle;Signal;HPM_P1;HPM_P2
2022/12/01 00:00:32;;;;;;;19.70;17.42;;;12.40;95.30;;;;;;5052675;28;20425;-72
2022/12/01 00:02:58;;;;;;;20.25;17.00;;;12.30;95.20;;;;;;5052767;28;20049;-71
2022/12/01 00:05:23;;;;;;;23.88;17.98;;;12.30;95.30;;;;;;5052626;28;20052;-70
2022/12/01 00:07:49;;;;;;;22.67;17.75;;;12.30;95.40;;;;;;5053160;28;20036;-72
2022/12/01 00:10:27;;;;;;;22.00;17.65;;;12.20;95.30;;;;;;5052368;28;20028;-71
2022/12/01 00:13:01;;;;;;;22.63;18.25;;;12.30;95.40;;;;;;5052335;28;20032;-72
2022/12/01 00:15:34;;;;;;;21.83;18.48;;;12.30;95.40;;;;;;5052565;28;20028;-72
2022/12/01 00:18:02;;;;;;;24.85;17.50;;;12.30;95.60;;;;;;5053754;28;20485;-71
2022/12/01 00:20:28;;;;;;;22.58;18.58;;;12.30;95.50;;;;;;5056304;28;20041;-72
2022/12/01 00:22:53;;;;;;;20.13;17.42;;;12.30;95.40;;;;;;5056578;28;20025;-71
2022/12/01 00:25:19;;;;;;;20.08;16.88;;;12.20;95.40;;;;;;5056336;28;20037;-71
2022/12/01 00:27:49;;;;;;;20.98;16.63;;;12.20;95.30;;;;;;5056084;28;20550;-72
2022/12/01 00:30:16;;;;;;;18.08;16.05;;;12.20;95.30;;;;;;5056411;28;20048;-72
2022/12/01 00:32:41;;;;;;;20.83;17.10;;;12.20;95.40;;;;;;5056406;28;20033;-72
2022/12/01 00:35:07;;;;;;;22.48;17.77;;;12.20;95.50;;;;;;5056170;28;20382;-72
2022/12/01 00:37:34;;;;;;;22.10;17.92;;;12.10;95.60;;;;;;5056395;28;20021;-72
2022/12/01 00:39:59;;;;;;;26.13;19.90;;;12.10;95.90;;;;;;5055897;28;20029;-71
2022/12/01 00:42:25;;;;;;;28.25;20.75;;;12.00;95.90;;;;;;5055954;28;20032;-72
2022/12/01 00:44:51;;;;;;;26.08;20.80;;;11.90;96.00;;;;;;5055991;28;20060;-72
2022/12/01 00:47:17;;;;;;;27.23;19.90;;;11.90;96.10;;;;;;5055928;28;20021;-71
2022/12/01 00:49:44;;;;;;;21.90;18.08;;;12.00;96.60;;;;;;5055835;28;20083;-72
2022/12/01 00:52:10;;;;;;;26.50;21.67;;;12.00;96.60;;;;;;5055747;28;20478;-71
2022/12/01 00:54:36;;;;;;;26.40;21.42;;;12.10;96.10;;;;;;5056220;28;20029;-72
2022/12/01 00:57:03;;;;;;;28.13;21.20;;;12.00;96.50;;;;;;5055443;28;20028;-72
2022/12/01 00:59:28;;;;;;;25.10;20.08;;;12.00;96.00;;;;;;5055638;28;20539;-71
2022/12/01 01:01:54;;;;;;;22.20;18.52;;;12.20;96.30;;;;;;5055644;28;20029;-71
2022/12/01 01:04:20;;;;;;;26.42;20.90;;;12.30;96.40;;;;;;5055677;28;20017;-71
2022/12/01 01:06:45;;;;;;;26.00;20.92;;;12.00;95.80;;;;;;5054467;28;20036;-73
2022/12/01 01:09:12;;;;;;;28.85;21.92;;;12.10;96.30;;;;;;5054414;28;20030;-71
2022/12/01 01:11:38;;;;;;;24.58;19.90;;;12.20;96.20;;;;;;5055103;28;20484;-72
2022/12/01 01:14:05;;;;;;;26.23;20.27;;;12.00;96.10;;;;;;5055696;28;20021;-71
2022/12/01 01:16:30;;;;;;;25.98;20.27;;;12.00;96.10;;;;;;5055426;28;20021;-73
2022/12/01 01:18:57;;;;;;;23.67;19.50;;;12.10;96.40;;;;;;5055361;28;20078;-73
2022/12/01 01:21:24;;;;;;;25.65;18.65;;;12.10;96.30;;;;;;5055169;28;20017;-73
2022/12/01 01:23:51;;;;;;;28.05;21.40;;;12.10;96.60;;;;;;5055467;28;20043;-73
2022/12/01 01:26:22;;;;;;;25.35;19.77;;;11.90;95.90;;;;;;5054832;28;20025;-74
2022/12/01 01:28:49;;;;;;;24.27;19.77;;;11.80;96.40;;;;;;5055043;28;20037;-73
2022/12/01 01:31:17;;;;;;;25.30;21.05;;;12.00;96.20;;;;;;5054474;28;20067;-71
2022/12/01 01:33:43;;;;;;;26.98;20.70;;;11.90;96.40;;;;;;5055450;28;20029;-73
2022/12/01 01:36:09;;;;;;;25.48;20.25;;;11.90;96.40;;;;;;5055011;28;20070;-73
2022/12/01 01:38:35;;;;;;;27.25;21.27;;;12.00;96.40;;;;;;5055529;28;20497;-72
2022/12/01 01:41:01;;;;;;;27.13;21.98;;;11.90;96.50;;;;;;5054587;28;20029;-73
2022/12/01 01:43:57;;;;;;;24.83;20.55;;;11.90;96.40;;;;;;5054984;28;20032;-71
2022/12/01 01:46:25;;;;;;;29.45;23.38;;;11.90;96.70;;;;;;5035451;28;20052;-70
2022/12/01 01:48:53;;;;;;;28.00;22.92;;;11.80;96.20;;;;;;5054734;28;20107;-71
2022/12/01 01:51:24;;;;;;;25.73;21.45;;;11.90;96.50;;;;;;5055189;28;20017;-70
2022/12/01 01:53:54;;;;;;;27.73;21.92;;;11.90;96.30;;;;;;5054589;28;20032;-70
2022/12/01 01:56:20;;;;;;;25.13;19.70;;;12.00;96.60;;;;;;5054674;28;20120;-71
2022/12/01 01:58:46;;;;;;;26.30;21.23;;;12.00;96.70;;;;;;5054810;28;20021;-70
2022/12/01 02:01:12;;;;;;;24.10;18.88;;;11.90;96.50;;;;;;5054730;28;20409;-70
2022/12/01 02:03:39;;;;;;;26.20;21.77;;;12.20;96.70;;;;;;5054760;28;20036;-71
2022/12/01 02:06:08;;;;;;;27.70;20.17;;;12.00;96.00;;;;;;5055012;28;20021;-71
2022/12/01 02:08:35;;;;;;;23.75;20.15;;;12.00;96.30;;;;;;5053997;28;20079;-70
2022/12/01 02:11:15;;;;;;;27.27;22.15;;;11.90;96.40;;;;;;5054503;28;20092;-70
2022/12/01 02:14:08;;;;;;;28.33;22.17;;;11.80;96.20;;;;;;5054198;28;20040;-70
2022/12/01 02:16:48;;;;;;;;;;;11.80;96.30;;;;;;5054827;28;20462;-70
2022/12/01 02:19:46;;;;;;;24.45;20.23;;;11.90;96.40;;;;;;5054279;28;19912;-70
2022/12/01 02:22:17;;;;;;;26.65;21.23;;;12.10;96.50;;;;;;5017106;28;20050;-70
2022/12/01 02:25:10;;;;;;;27.10;22.13;;;12.00;96.30;;;;;;5052600;28;20393;-72
2022/12/01 02:28:15;;;;;;;27.02;19.88;;;11.80;96.20;;;;;;5054180;28;20417;-70
2022/12/01 02:30:44;;;;;;;26.55;20.38;;;11.90;96.50;;;;;;5054271;28;20454;-70
2022/12/01 02:33:19;;;;;;;26.42;21.63;;;11.90;96.40;;;;;;5054098;28;20043;-70
2022/12/01 02:36:22;;;;;;;24.77;19.00;;;11.90;96.00;;;;;;5053952;28;20512;-69
2022/12/01 02:39:05;;;;;;;25.23;19.38;;;11.90;96.20;;;;;;5046162;28;20041;-70
2022/12/01 02:41:57;;;;;;;27.20;21.58;;;11.90;96.60;;;;;;5052120;28;20449;-70
2022/12/01 02:44:23;;;;;;;;;;;11.90;96.30;;;;;;5051250;28;20112;-70
2022/12/01 02:46:50;;;;;;;24.42;20.08;;;12.00;96.00;;;;;;5054153;28;19932;-70
2022/12/01 02:49:20;;;;;;;30.05;23.20;;;11.90;96.40;;;;;;5053528;28;20032;-70
2022/12/01 02:51:47;;;;;;;27.13;21.42;;;11.90;96.10;;;;;;5053399;28;20021;-69
2022/12/01 02:54:14;;;;;;;26.95;21.33;;;11.80;96.10;;;;;;5053808;28;20024;-71
2022/12/01 02:56:43;;;;;;;25.58;20.70;;;11.90;96.00;;;;;;5053913;28;20344;-70
2022/12/01 02:59:11;;;;;;;25.40;20.98;;;11.70;96.40;;;;;;5053526;28;20086;-70
2022/12/01 03:02:07;;;;;;;23.70;18.42;;;11.60;96.50;;;;;;5054975;28;20027;-70
2022/12/01 03:04:44;;;;;;;22.52;18.58;;;11.60;96.70;;;;;;5055440;28;20435;-70
2022/12/01 03:07:38;;;;;;;22.23;18.52;;;11.70;96.30;;;;;;5054741;28;20071;-72
2022/12/01 03:10:09;;;;;;;21.65;16.08;;;11.60;96.00;;;;;;5055957;28;20028;-72
2022/12/01 03:12:58;;;;;;;24.70;18.23;;;11.90;96.50;;;;;;5055726;28;20074;-70
2022/12/01 03:15:59;;;;;;;23.13;17.58;;;11.80;96.30;;;;;;5055345;28;20035;-70
2022/12/01 03:18:37;;;;;;;21.52;17.10;;;11.80;96.10;;;;;;5054271;28;20025;-72
2022/12/01 03:21:23;;;;;;;20.17;15.75;;;11.70;96.40;;;;;;5052890;28;20116;-74
2022/12/01 03:23:58;;;;;;;19.52;16.13;;;11.80;96.20;;;;;;5054051;28;20022;-71
2022/12/01 03:26:28;;;;;;;21.15;16.92;;;11.80;96.10;;;;;;5053198;28;20105;-72
2022/12/01 03:28:59;;;;;;;21.35;17.15;;;11.70;96.20;;;;;;5052999;28;20033;-73
2022/12/01 03:31:31;;;;;;;24.33;17.98;;;11.80;96.50;;;;;;5052894;28;20021;-69
2022/12/01 03:34:03;;;;;;;23.23;17.27;;;11.90;96.40;;;;;;5053051;28;20021;-72
2022/12/01 03:36:36;;;;;;;22.58;17.60;;;11.90;96.40;;;;;;5060124;28;20066;-71
2022/12/01 03:39:07;;;;;;;21.15;17.58;;;11.80;96.20;;;;;;5069495;28;20037;-70
2022/12/01 03:41:44;;;;;;;23.65;18.55;;;11.70;96.30;;;;;;5071961;28;20020;-70
2022/12/01 03:44:53;;;;;;;20.85;15.70;;;11.70;96.00;;;;;;5071497;28;20029;-69
2022/12/01 03:47:30;;;;;;;24.05;17.40;;;11.80;96.70;;;;;;5073034;28;20116;-70
2022/12/01 03:49:59;;;;;;;25.65;18.70;;;11.80;96.10;;;;;;5072508;28;20063;-69
2022/12/01 03:52:52;;;;;;;20.90;17.08;;;11.90;96.20;;;;;;5072645;28;20025;-69
2022/12/01 03:55:25;;;;;;;24.80;17.80;;;12.10;96.10;;;;;;5072987;28;20086;-70
2022/12/01 03:58:15;;;;;;;20.80;17.45;;;11.80;95.80;;;;;;5072601;28;20025;-70
2022/12/01 04:00:42;;;;;;;24.55;17.48;;;11.60;96.30;;;;;;5072883;28;20055;-69
2022/12/01 04:03:16;;;;;;;24.13;17.90;;;11.60;96.40;;;;;;5072762;28;20024;-70
2022/12/01 04:05:42;;;;;;;23.10;17.52;;;11.60;96.10;;;;;;5072402;28;20028;-70
2022/12/01 04:08:08;;;;;;;20.10;16.38;;;11.60;96.30;;;;;;5072796;28;20037;-71
2022/12/01 04:10:33;;;;;;;22.45;16.92;;;11.80;96.30;;;;;;5072540;28;20023;-70
2022/12/01 04:12:59;;;;;;;24.95;18.00;;;11.80;96.10;;;;;;5072610;28;20032;-69
2022/12/01 04:15:26;;;;;;;23.45;17.52;;;11.70;96.00;;;;;;5072507;28;20063;-69
2022/12/01 04:17:52;;;;;;;21.02;17.35;;;11.60;96.00;;;;;;5071260;28;20021;-70
2022/12/01 04:20:18;;;;;;;25.92;17.48;;;11.70;95.80;;;;;;5072163;28;20554;-69
2022/12/01 04:22:43;;;;;;;25.20;17.50;;;11.80;96.00;;;;;;5072796;28;20499;-70
2022/12/01 04:25:10;;;;;;;21.38;16.75;;;11.80;96.00;;;;;;5072613;28;20036;-69
2022/12/01 04:27:36;;;;;;;21.52;17.65;;;11.90;95.90;;;;;;5072180;28;20028;-69
2022/12/01 04:30:04;;;;;;;25.30;17.55;;;11.90;95.90;;;;;;5072285;28;20477;-70
2022/12/01 04:32:29;;;;;;;20.33;16.13;;;11.80;95.90;;;;;;5072590;28;20055;-70
2022/12/01 04:34:55;;;;;;;23.17;17.55;;;11.70;96.10;;;;;;5072003;28;20486;-69
2022/12/01 04:37:20;;;;;;;26.35;17.83;;;11.50;95.90;;;;;;5072484;28;20020;-69
2022/12/01 04:39:46;;;;;;;22.15;16.77;;;11.60;96.40;;;;;;5072373;28;20092;-70
2022/12/01 04:42:12;;;;;;;22.40;16.55;;;11.70;96.20;;;;;;5072401;28;20485;-70
2022/12/01 04:44:37;;;;;;;23.73;17.35;;;11.80;96.10;;;;;;5072300;28;20035;-71
2022/12/01 04:47:04;;;;;;;26.67;18.25;;;11.70;96.00;;;;;;5072044;28;20359;-69
2022/12/01 04:49:30;;;;;;;24.70;18.33;;;11.70;96.30;;;;;;5071952;28;20031;-69
2022/12/01 04:51:56;;;;;;;21.60;17.20;;;11.70;96.00;;;;;;5072189;28;20544;-70
2022/12/01 04:54:22;;;;;;;22.15;17.52;;;11.60;96.10;;;;;;5072353;28;20104;-70
2022/12/01 04:56:47;;;;;;;25.10;19.13;;;11.50;96.40;;;;;;5072254;28;20496;-69
2022/12/01 04:59:13;;;;;;;22.08;18.00;;;11.60;96.20;;;;;;5072235;28;20025;-70
2022/12/01 05:01:39;;;;;;;25.35;18.10;;;11.60;96.00;;;;;;5072128;28;20054;-69
2022/12/01 05:04:05;;;;;;;26.23;19.23;;;11.60;96.20;;;;;;5073065;28;20074;-70
2022/12/01 05:06:30;;;;;;;22.45;18.75;;;11.50;96.10;;;;;;5075680;28;20528;-69
2022/12/01 05:08:58;;;;;;;26.38;20.67;;;11.60;96.20;;;;;;5075690;28;20032;-72
2022/12/01 05:11:25;;;;;;;25.05;19.13;;;11.50;96.30;;;;;;5075653;28;20462;-69
2022/12/01 05:13:51;;;;;;;23.88;18.63;;;11.60;96.10;;;;;;5075329;28;20095;-69
2022/12/01 05:16:19;;;;;;;23.42;17.17;;;11.70;96.00;;;;;;5077971;28;20052;-73
2022/12/01 05:20:55;;;;;;;18.83;15.38;;;11.90;96.20;;;;;;5075931;28;20029;-73
2022/12/01 05:21:39;;;;;;;22.08;17.08;;;12.20;96.00;;;;;;5075424;28;20083;-73
2022/12/01 05:24:06;;;;;;;20.88;17.40;;;12.40;95.50;;;;;;5075551;28;20104;-73
2022/12/01 05:26:32;;;;;;;22.45;17.60;;;12.40;95.50;;;;;;5075780;28;20032;-72
2022/12/01 05:28:57;;;;;;;19.50;15.63;;;12.50;95.10;;;;;;5075078;28;20036;-75
2022/12/01 05:31:23;;;;;;;23.70;18.27;;;12.50;95.30;;;;;;5074866;28;20028;-72
2022/12/01 05:33:48;;;;;;;25.00;16.83;;;12.50;95.10;;;;;;5075316;28;20028;-70
2022/12/01 05:36:14;;;;;;;25.38;17.73;;;12.60;95.10;;;;;;5075120;28;20016;-70
2022/12/01 05:38:40;;;;;;;21.42;17.05;;;12.70;95.10;;;;;;5075311;28;20036;-72
2022/12/01 05:41:05;;;;;;;23.63;16.80;;;12.70;95.00;;;;;;5074902;28;20020;-71
2022/12/01 05:43:31;;;;;;;21.65;17.27;;;12.70;95.00;;;;;;5075107;28;20039;-71
2022/12/01 05:45:57;;;;;;;22.05;17.95;;;12.70;94.90;;;;;;5074800;28;20563;-71
2022/12/01 05:48:23;;;;;;;21.25;17.23;;;12.70;94.90;;;;;;5074542;28;20039;-73
2022/12/01 05:50:48;;;;;;;22.70;18.38;;;12.80;94.90;;;;;;5074930;28;20056;-72
2022/12/01 05:53:15;;;;;;;21.63;17.15;;;12.80;94.80;;;;;;5074788;28;20059;-72
2022/12/01 05:55:41;;;;;;;21.15;16.45;;;12.80;94.70;;;;;;5074772;28;20329;-72
2022/12/01 05:58:07;;;;;;;24.05;17.40;;;12.80;94.90;;;;;;5073276;28;20013;-74
2022/12/01 06:00:33;;;;;;;20.58;16.17;;;12.80;94.80;;;;;;5072086;28;20020;-74
2022/12/01 06:02:58;;;;;;;23.40;17.17;;;12.80;94.80;;;;;;5064575;28;20595;-71
2022/12/01 06:05:24;;;;;;;21.17;16.02;;;12.80;94.80;;;;;;5073115;28;20054;-73
2022/12/01 06:07:49;;;;;;;23.45;17.10;;;12.80;94.90;;;;;;5071698;28;20129;-76
2022/12/01 06:10:15;;;;;;;24.55;15.65;;;12.70;95.00;;;;;;5074626;28;20024;-73
2022/12/01 06:12:41;;;;;;;22.00;16.27;;;12.70;94.90;;;;;;5074406;28;20031;-74
2022/12/01 06:15:07;;;;;;;23.25;16.58;;;12.30;95.00;;;;;;5071825;28;20111;-72
2022/12/01 06:17:33;;;;;;;22.40;16.55;;;12.20;95.20;;;;;;5065057;28;20032;-72
2022/12/01 06:19:58;;;;;;;20.98;16.38;;;12.10;95.40;;;;;;5053839;28;20025;-74
2022/12/01 06:22:24;;;;;;;19.98;17.02;;;12.10;95.60;;;;;;5053167;28;20032;-70
2022/12/01 06:24:49;;;;;;;25.95;18.55;;;12.00;95.50;;;;;;5051086;28;20075;-70
2022/12/01 06:27:15;;;;;;;25.33;18.00;;;12.20;96.20;;;;;;5059724;28;20037;-74
2022/12/01 06:29:41;;;;;;;37.25;22.10;;;12.50;96.00;;;;;;5054572;28;20039;-71
2022/12/01 06:32:06;;;;;;;43.35;23.83;;;12.80;94.80;;;;;;5050492;28;20029;-70
2022/12/01 06:34:33;;;;;;;30.05;20.85;;;12.90;93.90;;;;;;5073667;28;20070;-74
2022/12/01 06:36:58;;;;;;;34.45;22.75;;;12.80;94.00;;;;;;5083934;28;20505;-73
2022/12/01 06:39:24;;;;;;;38.85;21.70;;;12.40;94.00;;;;;;5065928;28;20083;-73
2022/12/01 06:41:49;;;;;;;38.60;23.30;;;12.20;94.30;;;;;;5055722;28;20033;-71
2022/12/01 06:44:15;;;;;;;34.95;24.67;;;12.10;94.40;;;;;;5065274;28;20029;-75
2022/12/01 06:46:41;;;;;;;34.88;24.98;;;11.90;94.00;;;;;;5065284;28;20169;-75
2022/12/01 06:49:11;;;;;;;33.55;24.35;;;11.60;94.20;;;;;;5051586;28;20551;-73
2022/12/01 06:51:36;;;;;;;34.88;26.48;;;11.60;94.00;;;;;;5056634;28;20469;-75
2022/12/01 06:54:02;;;;;;;38.63;26.33;;;11.50;94.70;;;;;;5059930;28;20027;-75
2022/12/01 06:56:28;;;;;;;40.88;27.45;;;11.40;94.50;;;;;;5053689;28;20123;-73
2022/12/01 06:58:53;;;;;;;33.45;26.02;;;11.30;94.60;;;;;;5081351;28;20051;-74
2022/12/01 07:01:19;;;;;;;78.80;31.65;;;11.30;94.60;;;;;;5054208;28;20053;-74
2022/12/01 07:03:49;;;;;;;451.20;77.63;;;11.30;94.60;;;;;;5068243;28;20032;-75
2022/12/01 07:06:15;;;;;;;66.70;30.88;;;11.20;94.70;;;;;;5054843;28;20040;-74
2022/12/01 07:08:41;;;;;;;78.70;30.60;;;11.20;94.80;;;;;;5061109;28;20569;-74
2022/12/01 07:11:13;;;;;;;45.67;28.00;;;11.30;94.80;;;;;;5063657;28;20099;-76
2022/12/01 07:13:40;;;;;;;86.40;33.50;;;11.30;94.80;;;;;;5071000;28;20040;-78
2022/12/01 07:16:07;;;;;;;45.53;28.75;;;11.60;94.70;;;;;;5055717;28;20021;-75
2022/12/01 07:18:34;;;;;;;47.92;28.42;;;11.50;94.50;;;;;;5055355;28;20032;-79
2022/12/01 07:21:01;;;;;;;59.40;30.55;;;11.30;94.80;;;;;;5057679;28;20459;-77
2022/12/01 07:23:27;;;;;;;39.80;26.98;;;11.30;95.10;;;;;;5060020;28;20032;-76
2022/12/01 07:26:09;;;;;;;48.83;29.40;;;11.30;95.20;;;;;;5062621;28;20029;-75
2022/12/01 07:28:35;;;;;;;;;;;11.20;95.40;;;;;;5058456;28;20075;-75
2022/12/01 07:31:05;;;;;;;57.92;29.92;;;11.20;95.40;;;;;;5065132;28;20023;-70
2022/12/01 07:33:31;;;;;;;608.40;106.32;;;11.20;95.40;;;;;;5055558;28;20045;-73
2022/12/01 07:35:57;;;;;;;147.55;43.25;;;11.30;95.20;;;;;;5064869;28;20028;-73
2022/12/01 07:38:22;;;;;;;85.97;41.58;;;11.30;95.20;;;;;;5064671;28;20385;-72
2022/12/01 07:40:48;;;;;;;62.58;32.45;;;11.10;95.30;;;;;;5059669;28;20025;-73
2022/12/01 07:43:13;;;;;;;71.25;33.53;;;11.10;95.30;;;;;;5065677;28;20032;-73
2022/12/01 07:45:39;;;;;;;66.10;36.05;;;11.10;95.60;;;;;;5070654;28;20091;-72
2022/12/01 07:48:05;;;;;;;47.97;31.60;;;11.00;95.80;;;;;;5070132;28;20028;-70
2022/12/01 07:50:30;;;;;;;62.08;32.85;;;11.10;95.80;;;;;;5064131;28;20490;-70
2022/12/01 07:52:56;;;;;;;48.08;30.92;;;11.20;95.80;;;;;;5052930;28;20025;-70
2022/12/01 07:55:22;;;;;;;50.58;30.63;;;11.20;95.70;;;;;;5067062;28;20033;-71
2022/12/01 07:57:47;;;;;;;70.97;37.05;;;11.30;95.70;;;;;;5063340;28;20049;-71
2022/12/01 08:00:13;;;;;;;74.97;36.92;;;11.30;95.80;;;;;;5057999;28;20029;-70
2022/12/01 08:02:39;;;;;;;53.95;33.80;;;11.50;95.70;;;;;;5053255;28;20024;-71
2022/12/01 08:05:05;;;;;;;51.58;31.88;;;11.50;95.40;;;;;;5054580;28;20397;-71
2022/12/01 08:07:30;;;;;;;48.08;33.03;;;11.60;95.40;;;;;;5067698;28;20075;-71
2022/12/01 08:09:56;;;;;;;48.22;32.28;;;11.50;95.30;;;;;;5061537;28;20033;-70
2022/12/01 08:12:21;;;;;;;49.95;32.20;;;11.20;95.60;;;;;;5051586;28;20021;-70
2022/12/01 08:14:47;;;;;;;44.00;30.02;;;11.20;95.80;;;;;;5052553;28;20040;-71
2022/12/01 08:17:12;;;;;;;44.92;29.95;;;11.20;95.90;;;;;;5069988;28;20440;-72
2022/12/01 08:19:38;;;;;;;46.97;31.35;;;11.10;96.20;;;;;;5062273;28;20097;-71
2022/12/01 08:22:03;;;;;;;44.65;30.92;;;11.00;96.20;;;;;;5060645;28;20033;-70
2022/12/01 08:24:29;;;;;;;44.42;32.00;;;11.00;96.30;;;;;;5053666;28;20086;-71
2022/12/01 08:26:55;;;;;;;45.55;30.83;;;11.00;96.30;;;;;;5060457;28;20017;-70
2022/12/01 08:29:21;;;;;;;45.45;29.65;;;10.90;96.40;;;;;;5055026;28;20049;-77
2022/12/01 08:31:46;;;;;;;44.75;31.13;;;10.90;96.50;;;;;;5053263;28;20021;-83
2022/12/01 08:34:12;;;;;;;46.13;29.13;;;10.90;96.60;;;;;;5070072;28;20432;-80
2022/12/01 08:36:37;;;;;;;43.50;28.65;;;10.90;96.60;;;;;;5073271;28;20461;-82
2022/12/01 08:39:03;;;;;;;39.88;29.05;;;10.90;96.60;;;;;;5057660;28;20035;-80
2022/12/01 08:41:30;;;;;;;41.28;27.98;;;11.00;96.70;;;;;;5060516;28;20029;-76
2022/12/01 08:43:58;;;;;;;38.00;26.45;;;10.90;96.70;;;;;;5059614;28;20522;-81
2022/12/01 08:46:26;;;;;;;41.90;28.40;;;11.00;96.70;;;;;;5066242;28;20032;-84
2022/12/01 08:48:53;;;;;;;42.20;28.27;;;10.90;96.80;;;;;;5057593;28;20139;-70
2022/12/01 08:51:19;;;;;;;37.92;26.38;;;10.90;96.80;;;;;;5057508;28;20025;-89
2022/12/01 08:53:47;;;;;;;38.00;27.55;;;10.90;96.80;;;;;;5056638;28;20501;-85
2022/12/01 08:56:17;;;;;;;37.13;27.08;;;10.90;96.70;;;;;;5062114;28;20525;-83
2022/12/01 08:58:44;;;;;;;42.72;27.40;;;10.90;96.60;;;;;;5068842;28;20119;-80
2022/12/01 09:01:12;;;;;;;39.85;26.52;;;11.00;96.50;;;;;;5056294;28;20463;-82
2022/12/01 09:03:38;;;;;;;40.53;26.83;;;11.00;96.50;;;;;;5061410;28;20085;-73
2022/12/01 09:06:08;;;;;;;43.28;27.02;;;10.90;96.60;;;;;;5067489;28;20294;-82
2022/12/01 09:08:35;;;;;;;38.10;26.88;;;10.90;96.50;;;;;;5061410;28;20037;-77
2022/12/01 09:11:03;;;;;;;39.20;26.25;;;10.90;96.50;;;;;;5057315;28;20036;-75
2022/12/01 09:13:31;;;;;;;38.97;26.58;;;11.10;96.50;;;;;;5067460;28;20032;-81
2022/12/01 09:16:02;;;;;;;45.70;28.00;;;11.20;96.00;;;;;;5054737;28;20478;-85
2022/12/01 09:18:28;;;;;;;39.40;26.35;;;11.10;96.10;;;;;;5055463;28;20033;-79
2022/12/01 09:20:54;;;;;;;37.63;25.23;;;11.10;96.00;;;;;;5055158;28;20036;-85
2022/12/01 09:23:20;;;;;;;37.17;25.75;;;11.10;96.10;;;;;;5056311;28;20028;-77
2022/12/01 09:25:47;;;;;;;40.05;26.38;;;11.20;95.90;;;;;;5055513;28;20376;-75
2022/12/01 09:28:13;;;;;;;36.00;24.42;;;11.10;96.10;;;;;;5070474;28;20098;-76
2022/12/01 09:30:39;;;;;;;38.40;24.65;;;11.00;96.20;;;;;;5069217;28;20048;-77
2022/12/01 09:33:05;;;;;;;40.22;25.73;;;11.00;96.40;;;;;;5074234;28;20036;-77
2022/12/01 09:35:32;;;;;;;42.42;27.05;;;11.00;96.50;;;;;;5075287;28;20055;-78
2022/12/01 09:37:58;;;;;;;39.30;25.83;;;10.90;96.70;;;;;;5074819;28;20519;-78
2022/12/01 09:40:30;;;;;;;44.25;26.83;;;11.00;96.60;;;;;;5065395;28;20033;-75
2022/12/01 09:42:57;;;;;;;42.47;26.98;;;11.00;96.60;;;;;;5054806;28;20021;-73
2022/12/01 09:45:30;;;;;;;40.80;28.55;;;11.00;96.60;;;;;;5059349;28;20465;-71
2022/12/01 09:47:58;;;;;;;;;;;11.10;96.50;;;;;;5073764;28;20362;-73
2022/12/01 09:50:24;;;;;;;41.58;27.08;;;11.50;96.30;;;;;;5060693;28;19917;-74
2022/12/01 09:52:57;;;;;;;47.90;26.75;;;11.40;96.10;;;;;;5054468;28;20104;-71
2022/12/01 09:55:25;;;;;;;45.45;26.75;;;11.30;96.50;;;;;;5054556;28;20029;-72
2022/12/01 09:58:01;;;;;;;46.53;27.00;;;11.50;96.30;;;;;;5064051;28;20029;-71
2022/12/01 10:00:31;;;;;;;43.08;27.30;;;11.50;96.30;;;;;;5055118;28;20029;-71
2022/12/01 10:03:04;;;;;;;50.42;28.38;;;11.50;96.30;;;;;;5059357;28;20034;-72
2022/12/01 10:05:42;;;;;;;46.55;31.30;;;11.50;96.50;;;;;;5069227;28;20047;-74
2022/12/01 10:08:13;;;;;;;45.60;29.17;;;11.30;96.50;;;;;;5053792;28;20036;-73
2022/12/01 10:10:43;;;;;;;47.20;28.75;;;11.10;96.70;;;;;;5063214;28;20024;-74
2022/12/01 10:13:22;;;;;;;46.90;27.75;;;11.20;96.70;;;;;;5063971;28;20108;-72
2022/12/01 10:15:56;;;;;;;46.03;28.77;;;11.20;96.50;;;;;;5062786;28;20033;-73
2022/12/01 10:18:31;;;;;;;49.50;27.80;;;11.10;96.60;;;;;;5062133;28;20492;-72
2022/12/01 10:21:27;;;;;;;47.35;29.67;;;11.20;96.60;;;;;;5065308;28;20033;-73
2022/12/01 10:24:02;;;;;;;51.38;30.60;;;11.10;96.70;;;;;;5059937;28;20490;-73
2022/12/01 10:26:49;;;;;;;50.50;28.48;;;11.30;96.50;;;;;;5054153;28;20056;-72
2022/12/01 10:29:33;;;;;;;48.30;29.77;;;11.20;96.70;;;;;;5056206;28;20037;-72
2022/12/01 10:32:09;;;;;;;47.85;30.50;;;11.20;96.60;;;;;;5058806;28;20044;-73
2022/12/01 10:34:40;;;;;;;53.33;31.52;;;11.20;96.50;;;;;;5065002;28;20085;-71
2022/12/01 10:37:21;;;;;;;48.70;31.35;;;11.20;96.80;;;;;;5063141;28;20134;-73
2022/12/01 10:39:50;;;;;;;42.53;28.95;;;11.20;96.50;;;;;;5059966;28;20024;-72
2022/12/01 10:42:33;;;;;;;52.00;31.63;;;11.00;96.60;;;;;;5063647;28;20023;-73
2022/12/01 10:45:02;;;;;;;44.67;29.70;;;11.00;96.80;;;;;;5072968;28;20486;-71
2022/12/01 10:47:28;;;;;;;46.03;31.73;;;11.10;96.80;;;;;;5068214;28;20021;-71
2022/12/01 10:49:54;;;;;;;49.13;32.03;;;10.90;97.00;;;;;;5057245;28;20087;-71
2022/12/01 10:52:40;;;;;;;54.83;35.78;;;10.70;97.40;;;;;;5058935;28;20017;-71
2022/12/01 10:55:28;;;;;;;54.10;37.17;;;10.60;97.60;;;;;;5061782;28;20063;-71
2022/12/01 10:57:56;;;;;;;59.40;37.45;;;10.40;97.80;;;;;;5059778;28;20035;-72
2022/12/01 11:00:37;;;;;;;52.85;36.70;;;10.40;97.60;;;;;;5053383;28;20025;-74
2022/12/01 11:03:03;;;;;;;54.67;36.35;;;10.50;97.70;;;;;;5054103;28;20029;-74
2022/12/01 11:05:38;;;;;;;54.97;37.78;;;10.40;97.60;;;;;;5058799;28;20084;-73
2022/12/01 11:08:04;;;;;;;50.28;31.98;;;10.50;97.40;;;;;;5058890;28;20048;-73
2022/12/01 11:10:32;;;;;;;50.95;30.52;;;10.70;97.80;;;;;;5070731;28;20112;-76
2022/12/01 11:13:27;;;;;;;49.03;33.65;;;11.20;97.70;;;;;;5057201;28;20025;-74
2022/12/01 11:15:54;;;;;;;46.03;32.30;;;10.90;96.60;;;;;;5052877;28;20027;-75
2022/12/01 11:18:34;;;;;;;49.83;33.65;;;10.70;96.80;;;;;;5060928;28;20400;-72
2022/12/01 11:21:25;;;;;;;54.03;32.53;;;10.90;96.90;;;;;;5053102;28;20497;-72
2022/12/01 11:23:52;;;;;;;47.28;33.03;;;11.20;96.90;;;;;;5059477;28;20032;-71
2022/12/01 11:26:23;;;;;;;49.78;32.75;;;11.40;96.60;;;;;;5054713;28;20025;-75
2022/12/01 11:29:01;;;;;;;51.08;33.85;;;10.60;96.90;;;;;;5059773;28;20401;-72
2022/12/01 11:31:48;;;;;;;50.35;35.35;;;10.90;97.00;;;;;;5065678;28;20027;-76
2022/12/01 11:34:20;;;;;;;47.90;31.73;;;11.00;96.60;;;;;;5067886;28;20036;-74
2022/12/01 11:36:49;;;;;;;48.77;36.13;;;11.20;96.50;;;;;;5069090;28;20020;-74
2022/12/01 11:39:45;;;;;;;53.25;36.03;;;11.20;96.00;;;;;;5056270;28;20021;-75
2022/12/01 11:42:25;;;;;;;48.05;36.10;;;10.80;96.40;;;;;;5050656;28;20044;-75
2022/12/01 11:45:01;;;;;;;51.38;35.95;;;11.00;96.30;;;;;;5059486;28;20424;-74
2022/12/01 11:47:27;;;;;;;49.88;35.42;;;11.20;95.90;;;;;;5056072;28;20971;-71
2022/12/01 11:49:58;;;;;;;62.00;34.70;;;11.10;95.90;;;;;;5068511;28;20515;-71
2022/12/01 11:52:28;;;;;;;52.03;35.25;;;11.10;95.90;;;;;;5057595;28;20541;-72
2022/12/01 11:55:14;;;;;;;53.53;34.47;;;11.20;95.90;;;;;;5060428;28;20028;-71
2022/12/01 11:57:42;;;;;;;49.58;31.23;;;11.10;95.90;;;;;;5055065;28;20051;-69
2022/12/01 12:00:23;;;;;;;52.67;30.15;;;11.10;95.80;;;;;;5052669;28;20025;-69
2022/12/01 12:03:06;;;;;;;54.13;30.48;;;11.10;95.90;;;;;;5065182;28;20037;-69
2022/12/01 12:05:41;;;;;;;57.65;29.85;;;11.20;96.10;;;;;;5054289;28;20044;-71
2022/12/01 12:08:38;;;;;;;48.35;30.55;;;11.40;96.00;;;;;;5059052;28;20047;-72
2022/12/01 12:11:17;;;;;;;51.20;30.45;;;11.40;96.00;;;;;;5068375;28;20067;-71
2022/12/01 12:13:58;;;;;;;53.92;28.73;;;11.50;95.80;;;;;;5060940;28;20020;-69
2022/12/01 12:16:56;;;;;;;46.05;28.48;;;11.60;95.90;;;;;;5072346;28;20051;-71
2022/12/01 12:19:43;;;;;;;49.88;28.80;;;11.80;95.50;;;;;;5062188;28;20117;-70
2022/12/01 12:22:37;;;;;;;50.33;30.02;;;11.70;95.50;;;;;;5073385;28;20146;-69
2022/12/01 12:25:18;;;;;;;42.92;26.02;;;11.80;95.50;;;;;;5061388;28;20063;-68
2022/12/01 12:27:47;;;;;;;51.38;27.58;;;11.80;95.20;;;;;;5075986;28;20569;-69
2022/12/01 12:30:25;;;;;;;37.58;26.38;;;11.90;95.20;;;;;;5072115;28;20056;-69
2022/12/01 12:33:17;;;;;;;47.75;28.88;;;11.80;95.10;;;;;;5075841;28;20021;-68
2022/12/01 12:35:53;;;;;;;44.17;26.55;;;11.80;95.20;;;;;;5058183;28;20056;-69
2022/12/01 12:38:49;;;;;;;38.35;26.95;;;11.80;95.20;;;;;;5068273;28;20024;-72
2022/12/01 12:41:28;;;;;;;39.85;27.23;;;11.90;94.80;;;;;;5075569;28;20138;-73
2022/12/01 12:44:15;;;;;;;41.22;26.08;;;11.80;94.80;;;;;;5075335;28;20059;-73
2022/12/01 12:46:59;;;;;;;46.05;27.10;;;11.90;95.00;;;;;;5062344;28;20033;-76